createdAt,value
2023-04-18T00:02:03.171Z,51.23
2023-04-18T00:04:31.321Z,51.07
2023-04-18T00:06:59.703Z,51.39
2023-04-18T00:09:27.703Z,51.76
2023-04-18T00:11:56.064Z,50.65
2023-04-18T00:14:24.021Z,50.56
2023-04-18T00:16:54.351Z,50.43
2023-04-18T00:19:22.554Z,51.28
2023-04-18T00:21:53.397Z,51.45
2023-04-18T00:24:21.321Z,51.04
2023-04-18T00:26:49.633Z,51.08
2023-04-18T00:29:17.493Z,51.07
2023-04-18T00:31:45.795Z,50.74
2023-04-18T00:34:14.009Z,51.13
2023-04-18T00:36:42.843Z,50.60
2023-04-18T00:39:10.963Z,50.60
2023-04-18T00:41:39.247Z,50.68
2023-04-18T00:44:07.160Z,50.29
2023-04-18T00:46:35.613Z,50.48
2023-04-18T00:49:03.798Z,50.06
2023-04-18T00:51:32.785Z,49.81
2023-04-18T00:54:00.889Z,50.58
2023-04-18T00:56:29.685Z,49.89
2023-04-18T00:58:59.513Z,49.83
2023-04-18T01:01:27.909Z,49.59
2023-04-18T01:03:56.091Z,49.14
2023-04-18T01:06:24.775Z,49.37
2023-04-18T01:08:54.213Z,49.51
2023-04-18T01:11:22.653Z,49.25
2023-04-18T01:14:01.410Z,49.37
2023-04-18T01:16:30.103Z,49.76
2023-04-18T01:18:58.023Z,50.16
2023-04-18T01:21:27.067Z,49.53
2023-04-18T01:23:54.995Z,49.43
2023-04-18T01:26:23.508Z,48.65
2023-04-18T01:28:51.544Z,48.30
2023-04-18T01:31:20.360Z,48.58
2023-04-18T01:33:48.275Z,48.31
2023-04-18T01:36:17.526Z,47.91
2023-04-18T01:38:45.398Z,48.09
2023-04-18T01:41:13.714Z,48.11
2023-04-18T01:43:43.524Z,48.08
2023-04-18T01:46:12.283Z,48.45
2023-04-18T01:48:40.218Z,48.40
2023-04-18T01:51:08.864Z,48.92
2023-04-18T01:53:39.315Z,48.84
2023-04-18T01:56:07.693Z,48.84
2023-04-18T01:58:36.263Z,49.16
2023-04-18T02:01:04.819Z,48.71
2023-04-18T02:03:33.075Z,49.35
2023-04-18T02:06:02.162Z,49.80
2023-04-18T02:08:31.142Z,49.73
2023-04-18T02:10:59.563Z,49.94
2023-04-18T02:13:27.577Z,50.64
2023-04-18T02:15:55.808Z,50.68
2023-04-18T02:18:25.436Z,50.71
2023-04-18T02:20:53.826Z,50.22
2023-04-18T02:23:23.153Z,50.76
2023-04-18T02:25:51.768Z,50.05
2023-04-18T02:28:19.670Z,49.92
2023-04-18T02:30:47.905Z,49.50
2023-04-18T02:33:15.774Z,49.21
2023-04-18T02:35:44.115Z,49.44
2023-04-18T02:38:12.054Z,48.94
2023-04-18T02:40:40.318Z,49.27
2023-04-18T02:43:08.526Z,49.38
2023-04-18T02:45:37.011Z,48.81
2023-04-18T02:48:05.616Z,48.74
2023-04-18T02:50:35.973Z,49.00
2023-04-18T02:53:03.977Z,48.76
2023-04-18T02:55:44.745Z,48.77
2023-04-18T02:58:12.905Z,48.75
2023-04-18T03:01:00.211Z,48.22
2023-04-18T03:03:48.382Z,47.97
2023-04-18T03:06:34.976Z,47.64
2023-04-18T03:09:04.054Z,48.03
2023-04-18T03:11:35.743Z,47.96
2023-04-18T03:14:04.340Z,48.41
2023-04-18T03:16:42.205Z,48.28
2023-04-18T03:19:13.797Z,48.41
2023-04-18T03:21:42.155Z,48.17
2023-04-18T03:24:12.319Z,47.80
2023-04-18T03:26:43.252Z,47.54
2023-04-18T03:29:11.677Z,47.26
2023-04-18T03:31:42.251Z,47.28
2023-04-18T03:34:10.352Z,47.24
2023-04-18T03:36:38.773Z,47.03
2023-04-18T03:39:07.115Z,47.47
2023-04-18T03:41:36.584Z,47.45
2023-04-18T03:44:04.972Z,47.44
2023-04-18T03:46:36.847Z,47.87
2023-04-18T03:49:05.850Z,47.08
2023-04-18T03:51:41.749Z,46.76
2023-04-18T03:54:09.671Z,46.74
2023-04-18T03:56:38.581Z,46.87
2023-04-18T03:59:06.587Z,46.69
2023-04-18T04:01:35.026Z,46.78
2023-04-18T04:04:04.291Z,47.27
2023-04-18T04:06:33.134Z,47.14
2023-04-18T04:09:02.275Z,46.14
2023-04-18T04:11:30.874Z,45.33
2023-04-18T04:13:59.141Z,44.98
2023-04-18T04:16:33.901Z,45.10
2023-04-18T04:19:02.608Z,44.89
2023-04-18T04:21:37.887Z,44.78
2023-04-18T04:24:07.979Z,45.17
2023-04-18T04:26:43.489Z,44.63
2023-04-18T04:29:19.509Z,45.12
2023-04-18T04:31:49.957Z,45.24
2023-04-18T04:34:27.484Z,45.70
2023-04-18T04:36:56.190Z,45.61
2023-04-18T04:39:26.071Z,46.13
2023-04-18T04:42:20.444Z,45.80
2023-04-18T04:44:56.810Z,45.98
2023-04-18T04:47:26.318Z,46.19
2023-04-18T04:49:55.295Z,46.47
2023-04-18T04:52:23.982Z,46.09
2023-04-18T04:54:52.031Z,46.24
2023-04-18T04:57:22.350Z,46.31
2023-04-18T04:59:50.362Z,45.60
2023-04-18T05:02:18.825Z,46.33
2023-04-18T05:04:46.955Z,45.98
2023-04-18T05:07:15.962Z,46.24
2023-04-18T05:09:43.851Z,46.08
2023-04-18T05:12:12.092Z,46.44
2023-04-18T05:14:39.944Z,45.49
2023-04-18T05:17:08.626Z,45.37
2023-04-18T05:19:36.624Z,45.11
2023-04-18T05:22:04.951Z,45.11
2023-04-18T05:24:32.985Z,44.68
2023-04-18T05:27:01.877Z,45.04
2023-04-18T05:29:29.829Z,44.60
2023-04-18T05:31:58.092Z,44.47
2023-04-18T05:34:26.027Z,44.20
2023-04-18T05:36:54.293Z,43.62
2023-04-18T05:39:22.253Z,43.66
2023-04-18T05:41:50.465Z,44.40
2023-04-18T05:44:18.745Z,43.54
2023-04-18T05:46:51.471Z,43.25
2023-04-18T05:49:19.593Z,43.40
2023-04-18T05:51:50.016Z,43.21
2023-04-18T05:54:18.011Z,43.39
2023-04-18T05:56:46.272Z,42.92
2023-04-18T05:59:14.568Z,42.27
2023-04-18T06:01:43.812Z,42.11
2023-04-18T06:04:12.008Z,42.12
2023-04-18T06:06:40.816Z,42.87
2023-04-18T06:09:09.099Z,42.37
2023-04-18T06:11:37.448Z,43.36
2023-04-18T06:14:05.395Z,42.03
2023-04-18T06:16:33.829Z,41.93
2023-04-18T06:19:03.321Z,40.63
2023-04-18T06:21:31.758Z,39.27
2023-04-18T06:24:01.566Z,38.58
2023-04-18T06:26:32.259Z,38.42
2023-04-18T06:29:00.184Z,37.54
2023-04-18T06:31:28.803Z,37.57
2023-04-18T06:33:56.789Z,36.95
2023-04-18T06:36:25.254Z,36.65
2023-04-18T06:38:53.218Z,35.92
2023-04-18T06:41:21.560Z,35.16
2023-04-18T06:44:02.101Z,34.14
2023-04-18T06:46:32.396Z,34.58
2023-04-18T06:49:00.682Z,34.09
2023-04-18T06:51:29.296Z,33.92
2023-04-18T06:53:57.258Z,33.28
2023-04-18T06:56:25.560Z,32.17
2023-04-18T06:58:53.518Z,31.88
2023-04-18T07:01:21.870Z,31.55
2023-04-18T07:03:49.978Z,31.22
2023-04-18T07:06:18.924Z,30.75
2023-04-18T07:08:46.968Z,30.82
2023-04-18T07:11:15.853Z,30.37
2023-04-18T07:13:43.782Z,30.16
2023-04-18T07:16:12.135Z,30.45
2023-04-18T07:18:40.054Z,29.97
2023-04-18T07:21:08.335Z,30.03
2023-04-18T07:23:36.344Z,29.79
2023-04-18T07:26:05.923Z,29.56
2023-04-18T07:28:33.852Z,29.52
2023-04-18T07:31:03.592Z,29.79
2023-04-18T07:33:34.046Z,29.58
2023-04-18T07:36:03.474Z,28.91
2023-04-18T07:38:31.523Z,29.19
2023-04-18T07:41:00.262Z,29.75
2023-04-18T07:43:28.328Z,29.75
2023-04-18T07:45:56.691Z,30.04
2023-04-18T07:48:25.857Z,30.38
2023-04-18T07:50:54.474Z,30.65
2023-04-18T07:53:22.425Z,30.35
2023-04-18T07:55:50.944Z,31.03
2023-04-18T07:58:18.876Z,30.74
2023-04-18T08:00:47.616Z,30.68
2023-04-18T08:03:16.397Z,30.36
2023-04-18T08:05:44.750Z,31.14
2023-04-18T08:08:12.991Z,31.76
2023-04-18T08:10:41.373Z,32.15
2023-04-18T08:13:09.745Z,32.75
2023-04-18T08:15:38.096Z,33.06
2023-04-18T08:18:06.183Z,32.57
2023-04-18T08:20:36.557Z,32.58
2023-04-18T08:23:07.901Z,32.25
2023-04-18T08:25:37.967Z,32.01
2023-04-18T08:28:05.839Z,32.60
2023-04-18T08:30:34.335Z,32.40
2023-04-18T08:33:02.740Z,32.43
2023-04-18T08:35:31.548Z,31.50
2023-04-18T08:37:59.715Z,30.84
2023-04-18T08:40:30.424Z,31.64
2023-04-18T08:42:59.657Z,31.61
2023-04-18T08:45:29.273Z,30.95
2023-04-18T08:47:59.135Z,31.25
2023-04-18T08:50:28.015Z,30.23
2023-04-18T08:52:56.331Z,30.14
2023-04-18T08:55:24.677Z,30.82
2023-04-18T08:57:54.813Z,30.72
2023-04-18T09:00:23.886Z,30.16
2023-04-18T09:02:57.368Z,30.34
2023-04-18T09:05:27.747Z,30.32
2023-04-18T09:07:56.600Z,31.00
2023-04-18T09:10:26.815Z,29.70
2023-04-18T09:12:55.572Z,30.18
2023-04-18T09:15:27.133Z,30.62
2023-04-18T09:17:56.593Z,30.59
2023-04-18T09:20:41.436Z,30.80
2023-04-18T09:23:16.366Z,29.68
2023-04-18T09:25:48.385Z,30.03
2023-04-18T09:28:24.170Z,29.97
2023-04-18T09:30:53.246Z,29.78
2023-04-18T09:33:34.260Z,29.49
2023-04-18T09:36:37.787Z,28.18
2023-04-18T09:39:05.661Z,28.00
2023-04-18T09:41:33.917Z,28.58
2023-04-18T09:44:17.727Z,27.73
2023-04-18T09:46:47.548Z,26.68
2023-04-18T09:49:17.119Z,27.13
2023-04-18T09:51:46.483Z,29.14
2023-04-18T09:54:18.502Z,29.17
2023-04-18T09:56:47.836Z,28.75
2023-04-18T09:59:21.137Z,29.26
2023-04-18T10:01:49.937Z,28.62
2023-04-18T10:04:18.549Z,28.72
2023-04-18T10:06:47.560Z,29.93
2023-04-18T10:09:16.683Z,29.69
2023-04-18T10:11:45.161Z,29.58
2023-04-18T10:14:14.219Z,29.54
2023-04-18T10:16:45.751Z,29.72
2023-04-18T10:19:20.126Z,29.22
2023-04-18T10:21:52.063Z,28.11
2023-04-18T10:24:38.573Z,28.89
2023-04-18T10:27:07.254Z,28.90
2023-04-18T10:29:49.113Z,28.21
2023-04-18T10:32:19.115Z,28.29
2023-04-18T10:34:47.745Z,27.26
2023-04-18T10:37:17.853Z,26.81
2023-04-18T10:39:57.415Z,26.59
2023-04-18T10:42:44.988Z,27.29
2023-04-18T10:45:19.293Z,26.75
2023-04-18T10:47:47.598Z,25.58
2023-04-18T10:50:16.070Z,25.96
2023-04-18T10:52:44.614Z,26.77
2023-04-18T10:55:20.956Z,25.46
2023-04-18T10:57:51.706Z,24.71
2023-04-18T11:00:21.847Z,25.32
2023-04-18T11:02:56.297Z,24.79
2023-04-18T11:05:26.805Z,24.44
2023-04-18T11:07:55.516Z,24.15
2023-04-18T11:10:25.636Z,23.80
2023-04-18T11:12:56.702Z,24.89
2023-04-18T11:15:25.667Z,23.89
2023-04-18T11:18:04.247Z,22.60
2023-04-18T11:20:47.120Z,22.68
2023-04-18T11:23:16.528Z,23.43
2023-04-18T11:25:45.187Z,23.18
2023-04-18T11:28:13.912Z,23.41
2023-04-18T11:30:41.951Z,23.85
2023-04-18T11:33:11.851Z,24.90
2023-04-18T11:35:44.030Z,25.51
2023-04-18T11:38:13.791Z,25.60
2023-04-18T11:40:48.549Z,25.53
2023-04-18T11:43:24.256Z,24.84
2023-04-18T11:45:59.551Z,23.62
2023-04-18T11:48:37.197Z,22.64
2023-04-18T11:51:08.458Z,22.94
2023-04-18T11:53:37.952Z,23.11
2023-04-18T11:56:06.133Z,22.62
2023-04-18T11:58:34.887Z,22.57
2023-04-18T12:01:22.305Z,22.45
2023-04-18T12:04:20.587Z,21.35
2023-04-18T12:06:49.821Z,20.85
2023-04-18T12:09:18.748Z,21.54
2023-04-18T12:12:06.981Z,20.81
2023-04-18T12:14:36.019Z,20.48
2023-04-18T12:17:04.256Z,20.77
2023-04-18T12:19:33.159Z,22.15
2023-04-18T12:22:03.340Z,21.01
2023-04-18T12:24:32.494Z,21.58
2023-04-18T12:27:00.606Z,21.72
2023-04-18T12:29:29.305Z,21.88
2023-04-18T12:31:57.236Z,22.44
2023-04-18T12:34:26.068Z,21.24
2023-04-18T12:36:54.303Z,21.09
2023-04-18T12:39:22.687Z,21.13
2023-04-18T12:41:50.664Z,22.54
2023-04-18T12:44:19.330Z,23.53
2023-04-18T12:46:47.328Z,22.76
2023-04-18T12:49:16.065Z,22.43
2023-04-18T12:51:43.995Z,22.68
2023-04-18T12:54:12.612Z,22.57
2023-04-18T12:56:40.896Z,21.79
2023-04-18T12:59:09.724Z,21.94
2023-04-18T13:01:37.788Z,21.18
2023-04-18T13:04:12.270Z,20.98
2023-04-18T13:06:42.026Z,22.50
2023-04-18T13:09:11.091Z,22.29
2023-04-18T13:11:39.018Z,22.05
2023-04-18T13:14:07.875Z,22.25
2023-04-18T13:16:36.086Z,21.80
2023-04-18T13:19:04.448Z,20.80
2023-04-18T13:21:32.339Z,19.91
2023-04-18T13:24:01.480Z,19.89
2023-04-18T13:26:29.416Z,21.56
2023-04-18T13:28:57.429Z,20.66
2023-04-18T13:31:25.301Z,21.48
2023-04-18T13:33:53.382Z,20.83
2023-04-18T13:36:21.399Z,20.69
2023-04-18T13:38:50.586Z,20.72
2023-04-18T13:41:18.286Z,20.68
2023-04-18T13:43:46.541Z,21.20
2023-04-18T13:46:14.777Z,22.63
2023-04-18T13:48:42.854Z,22.04
2023-04-18T13:51:10.679Z,21.64
2023-04-18T13:53:38.801Z,21.58
2023-04-18T13:56:06.658Z,21.90
2023-04-18T13:58:34.682Z,21.94
2023-04-18T14:01:02.552Z,22.47
2023-04-18T14:03:31.130Z,22.53
2023-04-18T14:05:59.577Z,22.31
2023-04-18T14:08:27.737Z,22.23
2023-04-18T14:10:55.542Z,22.63
2023-04-18T14:13:23.886Z,22.10
2023-04-18T14:15:52.757Z,22.77
2023-04-18T14:18:22.012Z,23.07
2023-04-18T14:20:49.743Z,23.43
2023-04-18T14:23:17.799Z,22.87
2023-04-18T14:25:45.462Z,22.49
2023-04-18T14:28:13.687Z,22.25
2023-04-18T14:30:41.486Z,21.72
2023-04-18T14:33:11.680Z,21.89
2023-04-18T14:35:39.377Z,21.06
2023-04-18T14:38:07.455Z,20.47
2023-04-18T14:40:35.160Z,20.84
2023-04-18T14:43:03.379Z,20.61
2023-04-18T14:45:34.564Z,20.82
2023-04-18T14:48:02.668Z,21.39
2023-04-18T14:50:31.224Z,20.98
2023-04-18T14:52:59.264Z,20.87
2023-04-18T14:55:27.026Z,21.85
2023-04-18T14:57:55.019Z,20.78
2023-04-18T15:00:22.672Z,22.32
2023-04-18T15:02:51.074Z,21.49
2023-04-18T15:05:19.897Z,22.47
2023-04-18T15:07:48.090Z,22.13
2023-04-18T15:10:16.182Z,21.68
2023-04-18T15:12:44.493Z,22.28
2023-04-18T15:15:12.211Z,21.83
2023-04-18T15:17:40.462Z,22.60
2023-04-18T15:20:08.503Z,22.32
2023-04-18T15:22:37.255Z,22.57
2023-04-18T15:25:05.651Z,22.12
2023-04-18T15:27:33.990Z,22.06
2023-04-18T15:30:02.850Z,21.49
2023-04-18T15:32:31.574Z,21.33
2023-04-18T15:34:59.499Z,21.66
2023-04-18T15:37:28.048Z,21.40
2023-04-18T15:39:57.412Z,22.16
2023-04-18T15:42:25.634Z,21.48
2023-04-18T15:44:53.396Z,21.86
2023-04-18T15:47:21.696Z,22.32
2023-04-18T15:49:49.502Z,23.18
2023-04-18T15:52:17.627Z,24.01
2023-04-18T15:54:45.441Z,23.67
2023-04-18T15:57:13.797Z,22.95
2023-04-18T15:59:41.506Z,22.81
2023-04-18T16:02:09.791Z,23.49
2023-04-18T16:04:37.540Z,23.13
2023-04-18T16:07:06.671Z,23.84
2023-04-18T16:09:34.430Z,24.33
2023-04-18T16:12:03.670Z,24.88
2023-04-18T16:14:31.794Z,25.49
2023-04-18T16:16:59.944Z,27.20
2023-04-18T16:19:27.609Z,27.88
2023-04-18T16:21:55.610Z,28.80
2023-04-18T16:24:25.733Z,29.28
2023-04-18T16:26:55.954Z,29.13
2023-04-18T16:29:24.016Z,29.28
2023-04-18T16:31:52.217Z,29.12
2023-04-18T16:34:20.369Z,29.08
2023-04-18T16:36:50.773Z,29.49
2023-04-18T16:39:19.493Z,28.44
2023-04-18T16:41:47.557Z,29.80
2023-04-18T16:44:15.532Z,30.38
2023-04-18T16:46:43.857Z,30.13
2023-04-18T16:49:11.762Z,30.15
2023-04-18T16:51:39.908Z,30.71
2023-04-18T16:54:08.908Z,30.10
2023-04-18T16:56:37.067Z,30.00
2023-04-18T16:59:04.897Z,29.95
2023-04-18T17:01:34.396Z,29.75
2023-04-18T17:04:02.410Z,30.01
2023-04-18T17:06:31.553Z,29.81
2023-04-18T17:08:59.494Z,29.95
2023-04-18T17:11:28.095Z,30.19
2023-04-18T17:13:56.780Z,29.70
2023-04-18T17:16:24.914Z,30.71
2023-04-18T17:18:52.635Z,30.66
2023-04-18T17:21:20.656Z,31.21
2023-04-18T17:23:50.257Z,31.50
2023-04-18T17:26:18.374Z,30.68
2023-04-18T17:28:46.104Z,31.70
2023-04-18T17:31:15.422Z,31.91
2023-04-18T17:33:43.338Z,32.04
2023-04-18T17:36:11.793Z,32.00
2023-04-18T17:38:40.893Z,32.67
2023-04-18T17:41:09.082Z,32.77
2023-04-18T17:43:37.060Z,32.90
2023-04-18T17:46:05.284Z,33.15
2023-04-18T17:48:32.998Z,33.31
2023-04-18T17:51:02.254Z,33.03
2023-04-18T17:53:32.173Z,33.27
2023-04-18T17:56:00.691Z,33.19
2023-04-18T17:58:28.613Z,33.11
2023-04-18T18:00:57.008Z,33.56
2023-04-18T18:03:24.965Z,33.30
2023-04-18T18:05:55.170Z,32.84
2023-04-18T18:08:23.088Z,32.91
2023-04-18T18:10:51.351Z,33.37
2023-04-18T18:13:19.016Z,33.41
2023-04-18T18:15:47.245Z,33.81
2023-04-18T18:18:29.946Z,34.31
2023-04-18T18:20:58.463Z,34.91
2023-04-18T18:23:26.179Z,35.03
2023-04-18T18:25:54.180Z,35.32
2023-04-18T18:28:22.061Z,35.59
2023-04-18T18:30:50.160Z,35.86
2023-04-18T18:33:17.996Z,36.26
2023-04-18T18:35:46.068Z,36.82
2023-04-18T18:38:14.180Z,36.41
2023-04-18T18:40:42.296Z,36.90
2023-04-18T18:43:10.151Z,37.18
2023-04-18T18:45:38.596Z,37.79
2023-04-18T18:48:07.565Z,38.20
2023-04-18T18:50:35.952Z,38.34
2023-04-18T18:53:03.844Z,37.72
2023-04-18T18:55:32.231Z,38.02
2023-04-18T18:57:59.977Z,37.55
2023-04-18T19:00:28.193Z,38.23
2023-04-18T19:02:56.182Z,38.17
2023-04-18T19:05:24.595Z,38.11
2023-04-18T19:07:52.431Z,38.21
2023-04-18T19:10:21.500Z,38.19
2023-04-18T19:12:49.194Z,38.37
2023-04-18T19:15:18.826Z,38.40
2023-04-18T19:17:46.567Z,38.12
2023-04-18T19:20:14.899Z,38.18
2023-04-18T19:22:42.597Z,38.38
2023-04-18T19:25:10.712Z,38.12
2023-04-18T19:27:38.427Z,38.30
2023-04-18T19:30:07.001Z,38.24
2023-04-18T19:32:34.856Z,38.28
2023-04-18T19:35:03.155Z,38.58
2023-04-18T19:37:31.127Z,38.40
2023-04-18T19:39:59.216Z,37.75
2023-04-18T19:42:27.404Z,38.00
2023-04-18T19:44:56.601Z,38.00
2023-04-18T19:47:24.421Z,37.96
2023-04-18T19:49:52.549Z,38.31
2023-04-18T19:52:20.537Z,38.68
2023-04-18T19:54:48.847Z,38.19
2023-04-18T19:57:16.568Z,38.11
2023-04-18T19:59:44.687Z,38.04
2023-04-18T20:02:12.434Z,38.14
2023-04-18T20:04:42.266Z,38.94
2023-04-18T20:07:10.065Z,38.56
2023-04-18T20:09:38.242Z,38.27
2023-04-18T20:12:06.533Z,38.74
2023-04-18T20:14:35.007Z,38.72
2023-04-18T20:17:02.704Z,39.01
2023-04-18T20:19:30.968Z,38.84
2023-04-18T20:21:58.818Z,38.78
2023-04-18T20:24:28.396Z,39.28
2023-04-18T20:26:57.906Z,38.77
2023-04-18T20:29:27.276Z,38.68
2023-04-18T20:31:54.955Z,39.37
2023-04-18T20:34:23.244Z,39.29
2023-04-18T20:36:52.616Z,39.11
2023-04-18T20:39:20.735Z,39.17
2023-04-18T20:41:51.602Z,39.11
2023-04-18T20:44:21.128Z,39.21
2023-04-18T20:46:48.882Z,39.30
2023-04-18T20:49:17.477Z,39.23
2023-04-18T20:51:45.550Z,39.17
2023-04-18T20:54:13.840Z,39.05
2023-04-18T20:56:41.814Z,39.50
2023-04-18T20:59:09.919Z,39.74
2023-04-18T21:01:37.666Z,39.80
2023-04-18T21:04:05.986Z,39.62
2023-04-18T21:06:33.845Z,39.70
2023-04-18T21:09:01.965Z,39.86
2023-04-18T21:11:29.715Z,40.24
2023-04-18T21:13:57.779Z,40.22
2023-04-18T21:16:26.009Z,39.98
2023-04-18T21:18:55.473Z,39.73
2023-04-18T21:21:23.205Z,40.29
2023-04-18T21:23:51.321Z,40.53
2023-04-18T21:26:19.133Z,40.00
2023-04-18T21:28:57.713Z,40.37
2023-04-18T21:31:26.103Z,40.67
2023-04-18T21:33:55.433Z,40.52
2023-04-18T21:36:24.384Z,40.22
2023-04-18T21:38:52.936Z,40.05
2023-04-18T21:41:20.980Z,39.90
2023-04-18T21:43:49.828Z,39.79
2023-04-18T21:46:18.186Z,39.81
2023-04-18T21:48:47.612Z,39.95
2023-04-18T21:51:16.333Z,39.71
2023-04-18T21:53:44.695Z,39.69
2023-04-18T21:56:12.636Z,39.60
2023-04-18T21:58:40.717Z,39.76
2023-04-18T22:01:08.575Z,39.68
2023-04-18T22:03:37.324Z,39.90
2023-04-18T22:06:05.379Z,39.70
2023-04-18T22:08:34.073Z,39.72
2023-04-18T22:11:01.876Z,40.12
2023-04-18T22:13:30.358Z,40.15
2023-04-18T22:15:58.475Z,39.34
2023-04-18T22:18:30.558Z,39.89
2023-04-18T22:20:58.287Z,40.07
2023-04-18T22:23:27.287Z,40.06
2023-04-18T22:25:55.139Z,39.91
2023-04-18T22:28:24.115Z,40.07
2023-04-18T22:30:51.879Z,40.32
2023-04-18T22:33:20.204Z,40.53
2023-04-18T22:35:48.836Z,40.55
2023-04-18T22:38:16.984Z,41.04
2023-04-18T22:40:44.911Z,41.48
2023-04-18T22:43:13.292Z,41.47
2023-04-18T22:45:41.310Z,41.76
2023-04-18T22:48:12.625Z,41.28
2023-04-18T22:50:43.099Z,41.93
2023-04-18T22:53:11.349Z,41.69
2023-04-18T22:55:39.986Z,42.16
2023-04-18T22:58:08.976Z,42.68
2023-04-18T23:00:37.156Z,42.99
2023-04-18T23:03:05.827Z,42.64
2023-04-18T23:05:34.588Z,42.96
2023-04-18T23:08:02.724Z,43.29
2023-04-18T23:10:30.509Z,42.79
2023-04-18T23:12:58.578Z,43.18
2023-04-18T23:15:27.164Z,43.52
2023-04-18T23:17:55.350Z,43.45
2023-04-18T23:20:24.463Z,43.90
2023-04-18T23:22:53.029Z,43.63
2023-04-18T23:25:20.761Z,43.73
2023-04-18T23:27:48.817Z,43.61
2023-04-18T23:30:16.610Z,43.45
2023-04-18T23:32:44.735Z,43.63
2023-04-18T23:35:12.554Z,43.78
2023-04-18T23:37:42.333Z,43.86
2023-04-18T23:40:10.094Z,44.17
2023-04-18T23:42:38.521Z,43.78
2023-04-18T23:45:06.698Z,44.20
2023-04-18T23:47:34.831Z,44.06
2023-04-18T23:50:02.651Z,43.91
2023-04-18T23:52:30.961Z,43.87
2023-04-18T23:55:01.793Z,43.62
2023-04-18T23:57:30.095Z,44.01
2023-04-18T23:59:57.804Z,44.11
